Time;durP1;ratioP1;P1;durP2;ratioP2;P2;SDS_P1;SDS_P2;PMS_P1;PMS_P2;Temp;Humidity;BMP_temperature;BMP_pressure;BME280_temperature;BME280_humidity;BME280_pressure;Samples;Min_cycle;Max_cycle;Signal;HPM_P1;HPM_P2
2023/06/12 00:01:17;;;;;;;6.47;5.22;;;19.80;93.30;;;;;;5073608;28;20051;-39
2023/06/12 00:03:44;;;;;;;7.05;5.15;;;19.80;93.30;;;;;;5074107;28;20427;-39
2023/06/12 00:06:11;;;;;;;7.78;5.45;;;19.70;93.40;;;;;;5073431;28;20063;-39
2023/06/12 00:08:41;;;;;;;7.30;5.40;;;19.70;93.50;;;;;;5074079;28;20478;-39
2023/06/12 00:11:09;;;;;;;10.27;5.07;;;19.70;93.50;;;;;;5073947;28;20044;-40
2023/06/12 00:13:38;;;;;;;7.97;4.80;;;19.60;93.50;;;;;;5074139;28;20149;-39
2023/06/12 00:16:04;;;;;;;8.07;5.68;;;19.60;93.60;;;;;;5073994;28;20047;-40
2023/06/12 00:18:30;;;;;;;7.13;4.90;;;19.50;93.70;;;;;;5074002;28;20463;-39
2023/06/12 00:20:56;;;;;;;7.22;5.25;;;19.50;93.70;;;;;;5073669;28;20377;-40
2023/06/12 00:23:21;;;;;;;8.90;5.35;;;19.40;93.80;;;;;;5074104;28;20515;-40
2023/06/12 00:25:47;;;;;;;6.90;5.28;;;19.40;93.80;;;;;;5073792;28;20050;-39
2023/06/12 00:28:13;;;;;;;9.52;5.30;;;19.40;93.90;;;;;;5073365;28;20215;-39
2023/06/12 00:30:38;;;;;;;5.55;4.95;;;19.30;94.00;;;;;;5073361;28;20036;-39
2023/06/12 00:33:04;;;;;;;8.15;4.82;;;19.30;94.30;;;;;;5055850;28;20221;-40
2023/06/12 00:35:30;;;;;;;7.43;4.97;;;19.20;94.20;;;;;;5073064;28;20490;-39
2023/06/12 00:37:55;;;;;;;8.80;5.30;;;19.20;94.50;;;;;;5063682;28;20039;-39
2023/06/12 00:40:22;;;;;;;8.07;4.57;;;19.20;94.40;;;;;;5068294;28;20044;-40
2023/06/12 00:42:51;;;;;;;6.82;4.72;;;19.10;94.30;;;;;;5071542;28;20460;-40
2023/06/12 00:45:19;;;;;;;8.32;4.75;;;19.10;94.50;;;;;;5073442;28;20131;-39
2023/06/12 00:47:47;;;;;;;6.93;4.88;;;19.00;94.70;;;;;;5073609;28;20052;-39
2023/06/12 00:50:13;;;;;;;6.32;4.47;;;19.00;94.80;;;;;;5074171;28;20536;-39
2023/06/12 00:52:44;;;;;;;6.95;4.30;;;18.90;94.80;;;;;;5106058;27;20462;-39
2023/06/12 00:55:11;;;;;;;10.20;4.97;;;18.90;94.80;;;;;;5074366;28;20543;-39
2023/06/12 00:57:41;;;;;;;6.30;5.07;;;18.90;94.90;;;;;;5073056;28;20480;-39
2023/06/12 01:00:09;;;;;;;8.18;5.07;;;18.80;94.90;;;;;;5072974;28;20047;-39
2023/06/12 01:02:39;;;;;;;5.53;4.82;;;18.70;95.10;;;;;;5073300;28;20040;-39
2023/06/12 01:05:08;;;;;;;8.60;4.53;;;18.70;95.20;;;;;;5072302;28;20059;-39
2023/06/12 01:07:47;;;;;;;7.72;4.72;;;18.50;95.30;;;;;;5073122;28;20051;-39
2023/06/12 01:10:40;;;;;;;5.50;4.43;;;18.50;95.50;;;;;;5071686;28;20060;-39
2023/06/12 01:13:09;;;;;;;9.15;4.88;;;18.50;95.60;;;;;;5030419;28;20523;-39
2023/06/12 01:15:36;;;;;;;7.65;4.20;;;18.40;95.50;;;;;;5021595;28;20045;-39
2023/06/12 01:18:03;;;;;;;8.18;4.80;;;18.40;95.80;;;;;;5010086;28;20132;-39
2023/06/12 01:20:29;;;;;;;7.70;4.38;;;18.40;95.80;;;;;;4997699;28;20512;-39
2023/06/12 01:23:09;;;;;;;5.13;4.38;;;18.40;95.70;;;;;;5024518;28;20053;-39
2023/06/12 01:26:25;;;;;;;8.27;4.82;;;18.40;96.00;;;;;;5010568;28;20441;-39
2023/06/12 01:29:39;;;;;;;8.80;4.57;;;18.30;95.90;;;;;;4974628;28;20089;-39
2023/06/12 01:32:08;;;;;;;7.90;4.70;;;18.30;96.00;;;;;;4932546;29;20403;-39
2023/06/12 01:34:50;;;;;;;4.68;4.20;;;18.20;96.00;;;;;;4929640;29;20063;-39
2023/06/12 01:37:31;;;;;;;4.78;4.18;;;18.20;96.30;;;;;;4925231;29;20059;-40
2023/06/12 01:39:59;;;;;;;5.50;4.60;;;18.20;96.30;;;;;;4924887;28;20482;-39
2023/06/12 01:42:29;;;;;;;7.50;4.55;;;18.10;96.20;;;;;;4921207;29;20111;-39
2023/06/12 01:44:55;;;;;;;6.20;4.28;;;18.10;96.20;;;;;;4925976;29;20055;-39
2023/06/12 01:47:21;;;;;;;7.72;4.40;;;18.10;96.60;;;;;;4898217;29;20755;-39
2023/06/12 01:49:48;;;;;;;5.78;4.30;;;18.00;96.30;;;;;;4944853;28;20050;-39
2023/06/12 01:52:13;;;;;;;8.25;4.43;;;18.00;96.50;;;;;;4954526;28;20062;-39
2023/06/12 01:54:40;;;;;;;9.05;4.95;;;17.90;96.50;;;;;;4970971;28;20092;-39
2023/06/12 01:57:06;;;;;;;7.70;4.53;;;17.90;96.60;;;;;;4973520;28;20486;-39
2023/06/12 01:59:34;;;;;;;14.73;5.63;;;17.90;96.70;;;;;;4973725;28;20441;-39
2023/06/12 02:02:03;;;;;;;11.82;5.35;;;17.90;96.70;;;;;;4973575;28;20061;-39
2023/06/12 02:04:29;;;;;;;6.47;5.35;;;17.80;96.90;;;;;;4973793;28;20218;-39
2023/06/12 02:06:55;;;;;;;7.40;5.00;;;17.80;97.00;;;;;;4989032;28;20049;-39
2023/06/12 02:09:20;;;;;;;8.52;4.78;;;17.70;97.10;;;;;;5062342;28;20109;-39
2023/06/12 02:11:47;;;;;;;7.32;4.57;;;17.70;97.20;;;;;;5076558;28;20040;-39
2023/06/12 02:14:13;;;;;;;7.90;4.55;;;17.60;97.40;;;;;;5077033;28;20036;-39
2023/06/12 02:16:38;;;;;;;6.85;4.05;;;17.60;97.40;;;;;;5074586;28;20105;-39
2023/06/12 02:19:04;;;;;;;8.15;4.50;;;17.50;97.50;;;;;;5076532;28;20044;-39
2023/06/12 02:21:30;;;;;;;8.25;5.07;;;17.50;97.60;;;;;;5075942;28;20080;-39
2023/06/12 02:23:55;;;;;;;9.10;4.90;;;17.40;97.70;;;;;;5075016;28;20496;-39
2023/06/12 02:26:22;;;;;;;5.97;4.85;;;17.40;97.70;;;;;;5073619;28;20040;-39
2023/06/12 02:29:09;;;;;;;10.40;5.18;;;17.30;97.90;;;;;;5076159;28;20391;-39
2023/06/12 02:31:34;;;;;;;6.70;5.43;;;17.30;98.10;;;;;;5075005;28;20906;-39
2023/06/12 02:34:00;;;;;;;12.30;4.68;;;17.20;98.10;;;;;;5076465;28;20122;-39
2023/06/12 02:36:26;;;;;;;9.68;5.10;;;17.20;98.20;;;;;;5073345;28;20502;-38
2023/06/12 02:38:51;;;;;;;8.40;4.68;;;17.20;98.30;;;;;;5064841;28;20360;-39
2023/06/12 02:41:17;;;;;;;10.35;5.32;;;17.10;98.50;;;;;;5073375;28;20883;-43
2023/06/12 02:43:42;;;;;;;7.45;5.20;;;17.10;98.60;;;;;;5096480;27;20126;-39
2023/06/12 02:46:08;;;;;;;8.85;5.35;;;17.00;98.70;;;;;;5072572;28;20075;-39
2023/06/12 02:48:34;;;;;;;7.88;5.25;;;17.00;98.90;;;;;;5076134;28;20522;-39
2023/06/12 02:51:00;;;;;;;8.35;5.32;;;17.00;99.10;;;;;;5075219;28;20410;-39
2023/06/12 02:53:25;;;;;;;7.70;5.30;;;16.90;99.30;;;;;;5076017;28;20036;-39
2023/06/12 02:55:51;;;;;;;7.88;5.13;;;16.90;99.80;;;;;;5074359;28;20043;-39
2023/06/12 02:58:17;;;;;;;11.00;6.00;;;16.90;99.90;;;;;;5075662;28;20048;-39
2023/06/12 03:00:44;;;;;;;9.75;5.78;;;16.80;99.90;;;;;;5075508;28;20127;-39
2023/06/12 03:03:09;;;;;;;12.73;5.53;;;16.70;99.90;;;;;;5074488;28;20164;-39
2023/06/12 03:05:36;;;;;;;8.15;5.22;;;16.70;99.90;;;;;;5073102;28;20484;-39
2023/06/12 03:08:04;;;;;;;10.35;5.13;;;16.70;99.90;;;;;;5075564;28;20087;-39
2023/06/12 03:10:30;;;;;;;12.02;5.80;;;16.60;99.90;;;;;;5074331;28;20047;-39
2023/06/12 03:12:56;;;;;;;8.68;5.45;;;16.60;99.90;;;;;;5075959;28;20043;-39
2023/06/12 03:15:22;;;;;;;11.30;5.47;;;16.50;99.90;;;;;;5074832;28;20494;-39
2023/06/12 03:17:48;;;;;;;8.68;5.70;;;16.50;99.90;;;;;;5075800;28;20436;-39
2023/06/12 03:20:15;;;;;;;7.15;5.43;;;16.50;99.90;;;;;;5075523;28;20044;-39
2023/06/12 03:22:41;;;;;;;8.57;5.40;;;16.50;99.90;;;;;;5074197;28;20105;-39
2023/06/12 03:25:09;;;;;;;7.85;5.45;;;16.50;99.90;;;;;;5075106;28;20125;-39
2023/06/12 03:27:35;;;;;;;8.82;5.90;;;16.50;99.90;;;;;;5074915;28;20791;-39
2023/06/12 03:30:00;;;;;;;8.80;5.43;;;16.40;99.90;;;;;;5075057;28;20036;-39
2023/06/12 03:32:26;;;;;;;12.48;5.50;;;16.40;99.90;;;;;;5075910;28;20113;-39
2023/06/12 03:34:52;;;;;;;9.45;4.78;;;16.40;99.90;;;;;;5075041;28;20479;-39
2023/06/12 03:37:18;;;;;;;7.95;4.78;;;16.40;99.90;;;;;;5069956;28;20379;-39
2023/06/12 03:39:44;;;;;;;11.00;4.90;;;16.40;99.90;;;;;;5060122;28;20164;-39
2023/06/12 03:42:10;;;;;;;6.75;4.85;;;16.40;99.90;;;;;;5074007;28;20391;-39
2023/06/12 03:44:36;;;;;;;8.73;5.15;;;16.50;99.90;;;;;;5073631;28;20048;-39
2023/06/12 03:47:02;;;;;;;6.63;4.55;;;16.60;99.90;;;;;;5074876;28;20070;-39
2023/06/12 03:49:28;;;;;;;8.13;4.75;;;17.00;99.90;;;;;;5074763;28;20392;-39
2023/06/12 03:51:54;;;;;;;10.02;4.97;;;17.40;99.90;;;;;;5073818;28;20047;-39
2023/06/12 03:54:20;;;;;;;6.53;4.72;;;17.90;99.90;;;;;;5074689;28;20051;-39
2023/06/12 03:56:46;;;;;;;11.63;4.90;;;18.30;99.90;;;;;;5074176;28;20390;-39
2023/06/12 03:59:11;;;;;;;9.80;4.65;;;18.80;99.90;;;;;;5074678;28;20040;-39
2023/06/12 04:01:38;;;;;;;10.25;4.63;;;19.30;99.90;;;;;;5073075;28;20039;-39
2023/06/12 04:04:05;;;;;;;9.98;4.38;;;19.90;99.40;;;;;;5074497;28;20351;-39
2023/06/12 04:06:32;;;;;;;12.23;4.53;;;20.50;98.70;;;;;;5073988;28;20066;-40
2023/06/12 04:09:00;;;;;;;10.85;5.82;;;21.00;98.00;;;;;;5075161;28;20892;-39
2023/06/12 04:11:26;;;;;;;10.23;5.32;;;21.50;97.20;;;;;;5074400;28;20044;-40
2023/06/12 04:13:52;;;;;;;10.85;5.53;;;22.00;96.60;;;;;;5074481;28;20039;-39
2023/06/12 04:16:18;;;;;;;6.15;4.30;;;22.30;95.90;;;;;;5073843;28;20055;-41
2023/06/12 04:18:45;;;;;;;7.93;5.30;;;22.70;95.60;;;;;;5072257;28;20051;-39
2023/06/12 04:21:12;;;;;;;9.90;4.60;;;23.20;95.10;;;;;;5074820;28;20047;-40
2023/06/12 04:23:41;;;;;;;8.18;4.78;;;23.40;94.60;;;;;;5073234;28;20044;-40
2023/06/12 04:26:06;;;;;;;8.35;4.47;;;23.90;94.20;;;;;;5073840;28;20570;-40
2023/06/12 04:28:36;;;;;;;12.02;4.85;;;24.40;93.80;;;;;;5075044;28;20047;-40
2023/06/12 04:31:02;;;;;;;6.65;4.75;;;24.90;93.10;;;;;;5074391;28;20145;-40
2023/06/12 04:33:35;;;;;;;7.13;4.68;;;25.00;92.70;;;;;;5073144;28;20040;-41
2023/06/12 04:36:02;;;;;;;9.35;4.63;;;25.60;92.40;;;;;;5073952;28;20071;-40
2023/06/12 04:38:30;;;;;;;5.97;4.63;;;25.90;91.80;;;;;;5068935;28;20187;-41
2023/06/12 04:40:58;;;;;;;9.07;4.78;;;26.30;91.50;;;;;;5068454;28;20097;-40
2023/06/12 04:43:24;;;;;;;9.35;4.53;;;26.70;91.10;;;;;;5071474;28;20059;-41
2023/06/12 04:45:51;;;;;;;9.73;4.75;;;26.90;90.50;;;;;;5073486;28;20499;-41
2023/06/12 04:48:18;;;;;;;11.45;4.72;;;27.00;90.30;;;;;;5074655;28;20044;-41
2023/06/12 04:50:47;;;;;;;9.65;4.43;;;27.40;90.10;;;;;;5073808;28;20478;-43
2023/06/12 04:53:13;;;;;;;11.02;4.68;;;27.60;89.10;;;;;;5074927;28;20087;-41
2023/06/12 04:55:40;;;;;;;9.30;4.93;;;28.20;88.90;;;;;;5072219;28;20075;-41
2023/06/12 04:58:06;;;;;;;7.57;4.97;;;28.60;87.40;;;;;;5074009;28;20052;-41
2023/06/12 05:00:32;;;;;;;7.30;4.03;;;28.50;86.30;;;;;;5071569;28;20047;-41
2023/06/12 05:02:59;;;;;;;9.90;4.88;;;28.80;86.60;;;;;;5074383;28;20531;-42
2023/06/12 05:05:27;;;;;;;5.65;4.68;;;29.10;86.20;;;;;;5074002;28;20055;-41
2023/06/12 05:07:53;;;;;;;5.88;4.28;;;29.60;85.50;;;;;;5073587;28;20403;-40
2023/06/12 05:10:19;;;;;;;11.35;4.60;;;30.00;84.00;;;;;;5073884;28;20036;-41
2023/06/12 05:12:45;;;;;;;10.73;4.90;;;30.10;83.60;;;;;;5071030;28;20471;-41
2023/06/12 05:15:11;;;;;;;6.78;4.50;;;30.30;83.30;;;;;;5073751;28;20105;-41
2023/06/12 05:17:37;;;;;;;7.85;4.78;;;30.50;83.20;;;;;;5074420;28;20048;-41
2023/06/12 05:20:08;;;;;;;6.95;4.72;;;30.90;82.40;;;;;;5073640;28;20055;-41
2023/06/12 05:22:33;;;;;;;8.35;4.45;;;31.10;82.30;;;;;;5074171;28;20108;-42
2023/06/12 05:24:59;;;;;;;8.85;4.90;;;31.50;81.20;;;;;;5073087;28;20883;-41
2023/06/12 05:27:25;;;;;;;5.97;4.53;;;31.60;80.60;;;;;;5073261;28;20175;-41
2023/06/12 05:29:50;;;;;;;7.55;4.82;;;31.90;80.30;;;;;;5072276;28;20036;-41
2023/06/12 05:32:17;;;;;;;7.88;4.60;;;32.20;79.30;;;;;;5077857;28;20044;-41
2023/06/12 05:34:42;;;;;;;9.00;5.65;;;32.20;79.10;;;;;;5077641;28;20047;-41
2023/06/12 05:37:08;;;;;;;10.60;5.53;;;32.30;78.70;;;;;;5068359;28;20037;-41
2023/06/12 05:39:33;;;;;;;13.02;4.97;;;32.40;78.50;;;;;;5068375;28;20063;-41
2023/06/12 05:41:59;;;;;;;6.30;4.65;;;32.80;78.20;;;;;;5077211;28;20044;-43
2023/06/12 05:44:25;;;;;;;6.22;4.10;;;32.90;77.80;;;;;;5074669;28;20479;-41
2023/06/12 05:46:52;;;;;;;6.97;4.63;;;33.30;78.10;;;;;;5076564;28;20036;-42
2023/06/12 05:49:18;;;;;;;10.50;4.72;;;33.60;77.30;;;;;;5076401;28;20096;-42
2023/06/12 05:51:44;;;;;;;9.50;5.15;;;33.80;76.60;;;;;;5075994;28;20101;-42
2023/06/12 05:54:09;;;;;;;8.93;5.15;;;33.20;74.70;;;;;;5074806;28;20060;-42
2023/06/12 05:56:35;;;;;;;10.20;4.82;;;33.20;76.20;;;;;;5075593;28;20607;-42
2023/06/12 05:59:01;;;;;;;8.05;4.68;;;33.30;76.60;;;;;;5075945;28;20059;-41
2023/06/12 06:01:27;;;;;;;9.32;4.97;;;33.60;76.90;;;;;;5076272;28;20051;-42
2023/06/12 06:03:53;;;;;;;8.43;4.45;;;33.90;75.20;;;;;;5076104;28;20069;-42
2023/06/12 06:06:18;;;;;;;5.90;4.43;;;34.10;75.00;;;;;;5075571;28;20597;-39
2023/06/12 06:08:45;;;;;;;7.43;5.15;;;34.20;74.70;;;;;;5077032;28;20044;-39
2023/06/12 06:11:10;;;;;;;7.47;5.35;;;34.50;74.10;;;;;;5076075;28;20044;-39
2023/06/12 06:13:36;;;;;;;9.55;5.10;;;34.40;74.30;;;;;;5075981;28;20071;-40
2023/06/12 06:16:02;;;;;;;7.47;4.72;;;34.80;73.90;;;;;;5076138;28;20076;-41
2023/06/12 06:18:29;;;;;;;8.80;4.95;;;35.10;73.70;;;;;;5076061;28;20040;-43
2023/06/12 06:20:54;;;;;;;8.07;4.80;;;34.70;73.40;;;;;;5074117;28;20395;-41
2023/06/12 06:23:21;;;;;;;11.93;5.85;;;35.00;73.40;;;;;;5076090;28;20048;-42
2023/06/12 06:25:47;;;;;;;8.60;5.43;;;35.30;72.90;;;;;;5075727;28;20243;-42
2023/06/12 06:28:13;;;;;;;13.07;5.78;;;35.60;73.40;;;;;;5075555;28;20055;-41
2023/06/12 06:30:39;;;;;;;10.25;4.97;;;35.30;72.30;;;;;;5075425;28;20093;-41
2023/06/12 06:33:05;;;;;;;8.32;5.22;;;35.50;72.70;;;;;;5076633;28;20036;-41
2023/06/12 06:35:31;;;;;;;8.70;5.15;;;35.50;72.60;;;;;;5075902;28;20492;-44
2023/06/12 06:37:56;;;;;;;10.60;4.93;;;35.50;72.40;;;;;;5066002;28;20123;-42
2023/06/12 06:40:22;;;;;;;8.88;5.03;;;35.20;73.20;;;;;;5068956;28;20040;-43
2023/06/12 06:42:48;;;;;;;6.35;5.47;;;35.80;72.70;;;;;;5066331;28;20040;-45
2023/06/12 06:45:13;;;;;;;13.15;5.82;;;35.50;72.70;;;;;;5072683;28;20040;-39
2023/06/12 06:47:39;;;;;;;11.57;5.88;;;35.50;73.10;;;;;;5072955;28;20032;-39
2023/06/12 06:50:05;;;;;;;8.30;5.57;;;35.70;73.00;;;;;;5074442;28;20044;-43
2023/06/12 06:52:31;;;;;;;10.32;5.20;;;35.30;72.50;;;;;;5075198;28;20036;-42
2023/06/12 06:54:57;;;;;;;11.88;6.18;;;35.70;73.40;;;;;;5082292;28;20110;-43
2023/06/12 06:57:23;;;;;;;9.27;5.72;;;35.80;72.60;;;;;;5075136;28;20123;-45
2023/06/12 06:59:55;;;;;;;16.70;5.63;;;36.50;72.50;;;;;;5074208;28;20043;-42
2023/06/12 07:02:22;;;;;;;8.80;5.30;;;36.30;72.60;;;;;;5074689;28;20040;-42
2023/06/12 07:04:48;;;;;;;7.93;5.40;;;36.40;71.40;;;;;;5075069;28;20040;-42
2023/06/12 07:07:14;;;;;;;8.25;5.50;;;36.30;71.60;;;;;;5074016;28;20044;-43
2023/06/12 07:09:40;;;;;;;12.68;5.40;;;36.30;71.50;;;;;;5073572;28;20059;-43
2023/06/12 07:12:06;;;;;;;9.38;5.93;;;36.70;71.70;;;;;;5071144;28;20473;-41
2023/06/12 07:14:32;;;;;;;7.70;5.55;;;36.70;71.30;;;;;;5073477;28;20291;-42
2023/06/12 07:16:57;;;;;;;9.02;5.43;;;36.40;70.00;;;;;;5073530;28;20491;-42
2023/06/12 07:19:23;;;;;;;10.43;5.47;;;36.00;70.30;;;;;;5073182;28;20047;-43
2023/06/12 07:21:49;;;;;;;11.95;5.30;;;36.00;70.70;;;;;;5073281;28;20716;-43
2023/06/12 07:24:17;;;;;;;10.40;5.38;;;35.70;70.70;;;;;;5073032;28;20085;-43
2023/06/12 07:26:43;;;;;;;10.68;5.10;;;34.80;71.60;;;;;;5074315;28;20077;-43
2023/06/12 07:29:10;;;;;;;9.40;5.35;;;33.80;73.00;;;;;;5071329;28;20128;-42
2023/06/12 07:31:36;;;;;;;7.35;5.13;;;33.20;73.80;;;;;;5071997;28;20476;-41
2023/06/12 07:34:02;;;;;;;10.13;5.20;;;32.80;73.50;;;;;;5072702;28;20032;-43
2023/06/12 07:36:31;;;;;;;9.30;5.47;;;32.60;73.50;;;;;;5069755;28;20047;-42
2023/06/12 07:38:57;;;;;;;10.70;5.13;;;32.40;74.70;;;;;;5062639;28;20143;-44
2023/06/12 07:41:23;;;;;;;9.88;5.03;;;32.00;74.90;;;;;;5071151;28;20047;-41
2023/06/12 07:43:48;;;;;;;7.53;5.13;;;32.00;76.90;;;;;;5072387;28;20145;-42
2023/06/12 07:46:15;;;;;;;7.95;5.38;;;32.00;76.00;;;;;;5073086;28;20079;-43
2023/06/12 07:48:41;;;;;;;8.40;5.82;;;31.60;76.70;;;;;;5073469;28;20048;-41
2023/06/12 07:51:07;;;;;;;10.38;5.90;;;31.50;77.20;;;;;;5071307;28;20105;-42
2023/06/12 07:53:32;;;;;;;12.60;5.60;;;31.30;77.50;;;;;;5074015;28;20044;-43
2023/06/12 07:55:58;;;;;;;6.78;5.20;;;31.10;78.60;;;;;;5073126;28;20480;-42
2023/06/12 07:58:24;;;;;;;11.38;5.22;;;31.10;78.50;;;;;;5073760;28;20056;-46
2023/06/12 08:00:55;;;;;;;7.63;4.80;;;31.10;78.80;;;;;;5071131;28;20088;-42
2023/06/12 08:03:25;;;;;;;7.63;5.70;;;31.00;76.10;;;;;;5072516;28;20399;-42
2023/06/12 08:05:52;;;;;;;8.90;6.70;;;30.70;77.90;;;;;;5072072;28;20118;-42
2023/06/12 08:08:18;;;;;;;11.40;6.43;;;30.00;82.80;;;;;;5071164;28;20479;-42
2023/06/12 08:10:43;;;;;;;9.07;5.75;;;30.00;84.50;;;;;;5068339;28;20052;-42
2023/06/12 08:13:09;;;;;;;11.05;5.85;;;29.80;84.00;;;;;;5073063;28;20087;-42
2023/06/12 08:15:36;;;;;;;10.35;6.07;;;29.70;85.40;;;;;;5089202;27;20115;-42
2023/06/12 08:18:02;;;;;;;10.63;6.53;;;29.90;87.00;;;;;;5071934;28;20480;-43
2023/06/12 08:20:29;;;;;;;7.90;5.93;;;29.90;84.80;;;;;;5070014;28;20088;-41
2023/06/12 08:22:57;;;;;;;11.10;6.00;;;29.70;84.60;;;;;;5072482;28;20036;-44
2023/06/12 08:25:23;;;;;;;8.63;5.22;;;29.60;85.10;;;;;;5069132;28;20054;-42
2023/06/12 08:27:48;;;;;;;8.50;5.53;;;29.60;84.90;;;;;;5071960;28;20040;-42
2023/06/12 08:30:15;;;;;;;10.05;5.97;;;29.70;82.70;;;;;;5072611;28;20157;-42
2023/06/12 08:32:40;;;;;;;11.60;5.32;;;29.60;82.30;;;;;;5072501;28;20042;-42
2023/06/12 08:35:07;;;;;;;7.88;6.10;;;29.40;84.20;;;;;;5053587;28;20044;-42
2023/06/12 08:37:33;;;;;;;7.43;5.07;;;29.60;84.50;;;;;;5061138;28;20045;-43
2023/06/12 08:40:00;;;;;;;11.10;5.20;;;29.60;83.80;;;;;;5068645;28;20052;-41
2023/06/12 08:42:26;;;;;;;7.60;5.03;;;29.70;83.60;;;;;;5072382;28;20160;-42
2023/06/12 08:45:01;;;;;;;9.07;5.20;;;29.60;84.80;;;;;;5072974;28;20052;-41
2023/06/12 08:47:32;;;;;;;10.38;5.03;;;29.60;88.50;;;;;;5073555;28;20130;-41
2023/06/12 08:49:58;;;;;;;9.40;5.07;;;29.70;84.00;;;;;;5072898;28;20048;-41
2023/06/12 08:52:24;;;;;;;8.02;5.10;;;29.60;82.90;;;;;;5072389;28;20068;-42
2023/06/12 08:54:51;;;;;;;8.98;5.18;;;29.60;81.80;;;;;;5070308;28;20048;-42
2023/06/12 08:57:19;;;;;;;9.55;4.82;;;29.60;84.30;;;;;;5073548;28;20105;-42
2023/06/12 08:59:45;;;;;;;7.70;5.22;;;29.70;85.00;;;;;;5073224;28;20070;-42
2023/06/12 09:02:11;;;;;;;5.95;4.65;;;29.60;80.70;;;;;;5073134;28;20058;-42
2023/06/12 09:04:55;;;;;;;7.07;4.90;;;29.60;78.90;;;;;;5075449;28;20464;-43
2023/06/12 09:07:22;;;;;;;6.72;4.88;;;29.70;77.90;;;;;;5079623;28;20048;-42
2023/06/12 09:09:47;;;;;;;6.57;4.80;;;29.60;75.70;;;;;;5078529;28;20040;-42
2023/06/12 09:12:15;;;;;;;7.13;4.75;;;29.50;78.70;;;;;;5080401;28;20101;-41
2023/06/12 09:14:41;;;;;;;7.90;4.68;;;29.60;77.20;;;;;;5078986;28;20536;-42
2023/06/12 09:17:08;;;;;;;10.15;4.78;;;29.40;76.10;;;;;;5078397;28;20108;-42
2023/06/12 09:19:42;;;;;;;15.90;5.22;;;29.40;78.40;;;;;;5078827;28;20097;-42
2023/06/12 09:22:08;;;;;;;11.50;5.05;;;29.40;76.10;;;;;;5061152;28;20138;-42
2023/06/12 09:24:34;;;;;;;5.75;5.07;;;29.50;78.10;;;;;;5078269;28;20070;-42
2023/06/12 09:27:01;;;;;;;11.25;5.30;;;29.70;79.30;;;;;;5080177;28;20108;-41
2023/06/12 09:29:32;;;;;;;9.45;5.68;;;29.70;78.50;;;;;;5078542;28;20569;-41
2023/06/12 09:32:05;;;;;;;12.93;5.70;;;29.60;78.50;;;;;;5079790;28;20055;-41
2023/06/12 09:34:36;;;;;;;6.72;5.05;;;29.60;81.80;;;;;;5078944;28;20056;-41
2023/06/12 09:37:06;;;;;;;7.30;5.25;;;29.60;79.00;;;;;;5072552;28;20048;-41
2023/06/12 09:39:33;;;;;;;8.80;5.45;;;29.60;81.00;;;;;;5069600;28;20048;-42
2023/06/12 09:42:00;;;;;;;16.10;5.97;;;29.60;82.70;;;;;;5079270;28;20113;-42
2023/06/12 09:44:30;;;;;;;7.45;5.43;;;29.60;81.50;;;;;;5077765;28;20393;-42
2023/06/12 09:47:01;;;;;;;6.63;4.95;;;29.60;81.60;;;;;;5079313;28;20051;-41
2023/06/12 09:49:27;;;;;;;8.25;5.30;;;29.60;78.00;;;;;;5077643;28;20499;-41
2023/06/12 09:52:04;;;;;;;7.05;5.20;;;29.40;76.50;;;;;;5079379;28;20048;-40
2023/06/12 09:54:33;;;;;;;8.65;5.10;;;29.40;77.90;;;;;;5077607;28;20079;-42
2023/06/12 09:57:06;;;;;;;8.77;5.43;;;29.40;78.00;;;;;;5078161;28;20141;-40
2023/06/12 09:59:33;;;;;;;8.35;4.65;;;29.50;78.60;;;;;;5077725;28;20088;-41
2023/06/12 10:02:16;;;;;;;6.75;4.88;;;29.40;76.40;;;;;;5078284;28;20112;-41
2023/06/12 10:04:59;;;;;;;6.80;4.95;;;29.50;75.30;;;;;;5076461;28;20139;-41
2023/06/12 10:07:28;;;;;;;;;;;29.40;74.00;;;;;;5078753;28;20090;-41
2023/06/12 10:09:54;;;;;;;6.68;5.03;;;29.40;76.20;;;;;;5076919;28;19923;-41
2023/06/12 10:12:21;;;;;;;9.45;5.13;;;29.40;76.80;;;;;;5064221;28;20083;-41
2023/06/12 10:14:48;;;;;;;6.70;5.22;;;29.30;73.80;;;;;;5077491;28;20055;-42
2023/06/12 10:17:16;;;;;;;6.35;5.22;;;29.20;74.10;;;;;;5075730;28;20071;-41
2023/06/12 10:19:47;;;;;;;7.03;5.38;;;29.10;74.40;;;;;;5072637;28;20052;-41
2023/06/12 10:22:13;;;;;;;6.30;5.33;;;28.90;73.40;;;;;;5076069;28;20196;-40
2023/06/12 10:24:40;;;;;;;9.02;5.50;;;29.00;75.10;;;;;;5074242;28;20515;-41
2023/06/12 10:27:07;;;;;;;9.43;5.15;;;29.00;76.80;;;;;;5075827;28;20671;-41
2023/06/12 10:29:38;;;;;;;7.65;4.90;;;29.20;75.40;;;;;;5074811;28;20093;-43
2023/06/12 10:32:08;;;;;;;7.47;4.85;;;29.30;75.00;;;;;;5075346;28;20556;-41
2023/06/12 10:34:35;;;;;;;9.35;5.30;;;29.50;75.40;;;;;;5074609;28;20052;-41
2023/06/12 10:37:23;;;;;;;6.78;5.40;;;29.50;76.60;;;;;;5067315;28;20079;-41
2023/06/12 10:40:00;;;;;;;6.20;4.78;;;29.60;73.90;;;;;;5067716;28;20613;-42
2023/06/12 10:42:54;;;;;;;5.75;5.10;;;29.60;73.40;;;;;;5073516;28;20225;-41
2023/06/12 10:45:31;;;;;;;6.60;4.97;;;29.70;70.80;;;;;;5072176;28;20055;-41
2023/06/12 10:48:05;;;;;;;9.18;5.80;;;29.80;74.20;;;;;;5069745;28;20044;-43
2023/06/12 10:50:31;;;;;;;7.80;5.15;;;29.90;75.40;;;;;;5071161;28;20040;-41
2023/06/12 10:53:03;;;;;;;9.10;5.03;;;29.90;76.00;;;;;;5072432;28;20047;-42
2023/06/12 10:55:29;;;;;;;6.70;4.90;;;30.00;74.10;;;;;;5072126;28;20155;-41
2023/06/12 10:58:00;;;;;;;5.90;5.30;;;30.00;72.30;;;;;;5074135;28;20056;-41
2023/06/12 11:00:51;;;;;;;6.13;4.90;;;30.00;72.50;;;;;;5073123;28;20044;-41
2023/06/12 11:03:22;;;;;;;9.55;4.90;;;30.00;73.30;;;;;;5075456;28;20040;-45
2023/06/12 11:05:51;;;;;;;8.70;5.18;;;30.10;73.50;;;;;;5074657;28;20052;-42
2023/06/12 11:08:17;;;;;;;5.07;4.57;;;30.10;71.90;;;;;;5075701;28;20051;-41
2023/06/12 11:10:44;;;;;;;5.85;5.15;;;30.20;70.70;;;;;;5075337;28;20043;-41
2023/06/12 11:13:10;;;;;;;6.22;4.65;;;30.20;69.60;;;;;;5074450;28;20059;-41
2023/06/12 11:15:46;;;;;;;6.78;5.28;;;30.20;70.60;;;;;;5075400;28;20108;-41
2023/06/12 11:18:13;;;;;;;5.72;4.68;;;30.30;69.30;;;;;;5075080;28;20047;-40
2023/06/12 11:20:40;;;;;;;7.72;5.10;;;30.40;68.90;;;;;;5073848;28;20040;-41
2023/06/12 11:23:06;;;;;;;5.88;4.85;;;30.30;69.50;;;;;;5074728;28;20055;-42
2023/06/12 11:25:45;;;;;;;7.72;4.85;;;30.40;70.80;;;;;;5073288;28;20044;-40
2023/06/12 11:28:12;;;;;;;5.60;5.03;;;30.50;70.00;;;;;;5074484;28;20130;-41
2023/06/12 11:30:39;;;;;;;6.10;4.90;;;30.40;68.60;;;;;;5074543;28;20040;-41
2023/06/12 11:33:12;;;;;;;7.47;5.30;;;30.20;70.00;;;;;;5075392;28;20086;-41
2023/06/12 11:35:45;;;;;;;7.15;5.22;;;30.40;71.50;;;;;;5072003;28;20413;-42
2023/06/12 11:38:16;;;;;;;7.72;5.22;;;30.50;70.80;;;;;;5065041;28;20048;-41
2023/06/12 11:40:42;;;;;;;6.70;5.10;;;30.40;69.70;;;;;;5068997;28;20088;-40
2023/06/12 11:43:08;;;;;;;7.57;5.55;;;30.30;70.70;;;;;;5073268;28;20076;-41
2023/06/12 11:45:41;;;;;;;6.53;5.03;;;30.40;71.00;;;;;;5074416;28;20081;-40
2023/06/12 11:48:16;;;;;;;6.18;5.40;;;30.40;70.60;;;;;;5075397;28;20091;-40
2023/06/12 11:50:45;;;;;;;7.40;4.80;;;30.50;71.70;;;;;;5073084;28;20235;-40
2023/06/12 11:53:12;;;;;;;8.98;5.65;;;30.70;70.70;;;;;;5075485;28;20040;-40
2023/06/12 11:55:37;;;;;;;7.90;5.25;;;30.90;71.50;;;;;;5074117;28;20052;-41
2023/06/12 11:58:04;;;;;;;6.70;5.32;;;30.90;71.10;;;;;;5074850;28;20044;-41
2023/06/12 12:00:32;;;;;;;7.25;6.28;;;30.80;70.20;;;;;;5073355;28;20606;-42
2023/06/12 12:03:01;;;;;;;7.15;5.30;;;30.60;70.20;;;;;;5074189;28;20125;-41
2023/06/12 12:05:31;;;;;;;7.47;5.55;;;30.60;70.00;;;;;;5073568;28;20036;-41
2023/06/12 12:07:59;;;;;;;7.25;6.28;;;30.60;70.00;;;;;;5074701;28;20092;-41
2023/06/12 12:10:26;;;;;;;7.03;6.30;;;30.70;69.10;;;;;;5072751;28;20040;-42
2023/06/12 12:12:59;;;;;;;6.43;5.85;;;30.70;65.80;;;;;;5074652;28;20043;-41
2023/06/12 12:15:26;;;;;;;8.23;6.47;;;30.50;66.10;;;;;;5073792;28;20067;-42
2023/06/12 12:17:53;;;;;;;7.68;6.32;;;30.30;65.10;;;;;;5073944;28;20040;-40
2023/06/12 12:20:21;;;;;;;6.65;6.03;;;30.30;65.90;;;;;;5073650;28;20815;-41
2023/06/12 12:22:54;;;;;;;6.93;6.20;;;30.30;63.30;;;;;;5074573;28;20058;-41
2023/06/12 12:25:22;;;;;;;7.10;6.18;;;30.30;62.90;;;;;;5073416;28;20548;-41
2023/06/12 12:27:53;;;;;;;6.68;5.78;;;30.30;63.30;;;;;;5073411;28;20044;-42
2023/06/12 12:30:23;;;;;;;6.30;5.70;;;30.40;63.60;;;;;;5073659;28;20313;-41
2023/06/12 12:32:50;;;;;;;7.07;6.47;;;30.40;64.80;;;;;;5072648;28;20082;-41
2023/06/12 12:35:17;;;;;;;8.32;6.20;;;30.50;65.20;;;;;;5074211;28;20051;-42
2023/06/12 12:37:44;;;;;;;7.90;7.10;;;30.60;66.50;;;;;;5063452;28;20040;-42
2023/06/12 12:40:11;;;;;;;8.02;7.03;;;30.80;66.00;;;;;;5067384;28;20119;-41
2023/06/12 12:42:47;;;;;;;7.10;6.32;;;30.80;65.10;;;;;;5072664;28;20039;-41
2023/06/12 12:45:15;;;;;;;7.55;6.78;;;30.80;64.50;;;;;;5072980;28;20163;-40
2023/06/12 12:47:47;;;;;;;7.68;6.95;;;30.80;65.40;;;;;;5072485;28;20093;-41
2023/06/12 12:50:14;;;;;;;8.15;7.03;;;30.90;65.60;;;;;;5074084;28;20414;-41